Time;durP1;ratioP1;P1;durP2;ratioP2;P2;SDS_P1;SDS_P2;PMS_P1;PMS_P2;Temp;Humidity;BMP_temperature;BMP_pressure;BME280_temperature;BME280_humidity;BME280_pressure;Samples;Min_cycle;Max_cycle;Signal;HPM_P1;HPM_P2
2023/07/21 00:01:09;;;;;;;5.15;3.30;;;16.20;99.90;;;;;;5057001;28;20591;-72
2023/07/21 00:03:58;;;;;;;4.35;3.38;;;16.20;99.90;;;;;;5082123;28;20621;-72
2023/07/21 00:06:47;;;;;;;4.05;3.40;;;16.20;99.90;;;;;;5061415;28;20361;-71
2023/07/21 00:09:36;;;;;;;4.20;3.53;;;16.30;99.90;;;;;;5059068;28;20858;-72
2023/07/21 00:12:29;;;;;;;5.13;3.65;;;16.20;99.90;;;;;;5082723;28;20216;-71
2023/07/21 00:15:20;;;;;;;4.50;3.60;;;16.20;99.90;;;;;;5064828;28;21300;-72
2023/07/21 00:18:12;;;;;;;6.13;3.63;;;16.30;99.90;;;;;;5062149;28;20224;-71
2023/07/21 00:21:01;;;;;;;6.28;4.38;;;16.30;99.90;;;;;;5062595;28;20267;-72
2023/07/21 00:23:51;;;;;;;4.40;3.67;;;16.20;99.90;;;;;;5060393;28;20333;-73
2023/07/21 00:26:40;;;;;;;3.50;3.20;;;16.10;99.90;;;;;;5061800;28;20219;-74
2023/07/21 00:29:31;;;;;;;5.25;3.65;;;16.00;99.90;;;;;;5070361;28;20309;-75
2023/07/21 00:32:22;;;;;;;4.35;3.95;;;16.00;99.90;;;;;;5083361;28;20291;-73
2023/07/21 00:35:12;;;;;;;6.20;3.92;;;16.00;99.90;;;;;;5075638;28;20698;-72
2023/07/21 00:38:01;;;;;;;4.63;3.55;;;16.10;99.90;;;;;;5081898;28;20334;-72
2023/07/21 00:40:50;;;;;;;3.97;3.45;;;16.10;99.90;;;;;;5072421;28;20778;-73
2023/07/21 00:43:39;;;;;;;8.10;3.70;;;16.10;99.90;;;;;;5064596;28;20602;-72
2023/07/21 00:46:28;;;;;;;3.70;3.35;;;15.90;99.90;;;;;;5064834;28;20264;-73
2023/07/21 00:49:19;;;;;;;4.93;3.15;;;16.00;99.90;;;;;;5068508;28;20794;-72
2023/07/21 00:52:17;;;;;;;4.00;3.40;;;16.10;99.90;;;;;;5057235;28;20238;-72
2023/07/21 00:55:08;;;;;;;4.63;3.53;;;16.00;99.90;;;;;;5066562;28;20319;-73
2023/07/21 00:58:00;;;;;;;4.95;3.10;;;15.90;99.90;;;;;;5052934;28;20224;-72
2023/07/21 01:00:52;;;;;;;3.65;3.35;;;15.90;99.90;;;;;;5055974;28;20220;-71
2023/07/21 01:03:41;;;;;;;5.68;3.63;;;15.80;99.90;;;;;;5039235;28;20228;-73
2023/07/21 01:06:32;;;;;;;3.90;3.10;;;15.90;99.90;;;;;;5045006;28;20220;-72
2023/07/21 01:09:22;;;;;;;4.70;3.83;;;15.90;99.90;;;;;;5041548;28;20235;-72
2023/07/21 01:12:13;;;;;;;3.80;3.25;;;15.90;99.90;;;;;;5043842;28;20405;-71
2023/07/21 01:15:02;;;;;;;4.75;3.53;;;15.90;99.90;;;;;;5050032;28;20333;-71
2023/07/21 01:17:52;;;;;;;4.68;3.63;;;15.90;99.90;;;;;;5067655;28;20231;-72
2023/07/21 01:20:42;;;;;;;3.63;3.13;;;15.90;99.90;;;;;;5058036;28;20223;-71
2023/07/21 01:23:41;;;;;;;4.50;3.58;;;15.90;99.90;;;;;;5049952;28;20236;-72
2023/07/21 01:26:35;;;;;;;5.78;3.50;;;15.80;99.90;;;;;;5054141;28;20274;-71
2023/07/21 01:29:25;;;;;;;4.05;3.65;;;15.90;99.90;;;;;;5044101;28;20280;-72
2023/07/21 01:32:16;;;;;;;4.25;3.38;;;15.90;99.90;;;;;;5057679;28;20216;-72
2023/07/21 01:35:09;;;;;;;4.97;3.40;;;15.90;99.90;;;;;;5044607;28;20232;-73
2023/07/21 01:38:01;;;;;;;5.47;3.75;;;15.90;99.90;;;;;;5049910;28;20235;-72
2023/07/21 01:40:51;;;;;;;3.97;3.40;;;15.70;99.90;;;;;;5032612;28;20224;-72
2023/07/21 01:43:44;;;;;;;7.10;4.03;;;15.80;99.90;;;;;;5045570;28;20216;-72
2023/07/21 01:46:37;;;;;;;5.47;4.07;;;15.80;99.90;;;;;;5032659;28;20419;-71
2023/07/21 01:49:26;;;;;;;5.63;3.90;;;15.70;99.90;;;;;;5027657;28;20245;-72
2023/07/21 01:52:16;;;;;;;4.00;3.60;;;15.60;99.90;;;;;;5051284;28;20227;-70
2023/07/21 01:55:12;;;;;;;4.15;3.60;;;15.60;99.90;;;;;;5038527;28;20773;-71
2023/07/21 01:58:04;;;;;;;7.20;4.10;;;15.60;99.90;;;;;;5053672;28;20268;-72
2023/07/21 02:00:56;;;;;;;5.72;4.18;;;15.60;99.90;;;;;;5042147;28;20596;-71
2023/07/21 02:03:47;;;;;;;6.88;4.03;;;15.50;99.90;;;;;;5026762;28;20596;-70
2023/07/21 02:06:36;;;;;;;6.95;4.10;;;15.40;99.90;;;;;;5041589;28;20393;-71
2023/07/21 02:09:25;;;;;;;4.55;3.90;;;15.40;99.90;;;;;;5059159;28;20381;-71
2023/07/21 02:12:14;;;;;;;4.40;3.90;;;15.40;99.90;;;;;;5057715;28;20223;-71
2023/07/21 02:15:25;;;;;;;4.30;3.90;;;15.60;99.90;;;;;;5043553;28;20698;-70
2023/07/21 02:18:16;;;;;;;4.75;4.00;;;15.60;99.90;;;;;;5034494;28;20239;-70
2023/07/21 02:21:05;;;;;;;5.38;3.55;;;15.70;99.90;;;;;;5022140;28;20231;-71
2023/07/21 02:23:54;;;;;;;5.78;4.05;;;15.70;99.90;;;;;;5032258;28;20331;-71
2023/07/21 02:26:43;;;;;;;4.97;4.18;;;15.70;99.90;;;;;;5042814;28;20666;-71
2023/07/21 02:29:32;;;;;;;6.15;3.65;;;15.70;99.90;;;;;;5043944;28;20224;-71
2023/07/21 02:32:21;;;;;;;5.32;4.22;;;15.70;99.90;;;;;;5041864;28;20222;-72
2023/07/21 02:35:12;;;;;;;6.13;4.07;;;15.80;99.90;;;;;;5037806;28;20228;-71
2023/07/21 02:38:03;;;;;;;6.90;4.00;;;15.80;99.90;;;;;;5052475;28;20235;-71
2023/07/21 02:40:52;;;;;;;4.80;4.10;;;15.70;99.90;;;;;;5047936;28;20583;-70
2023/07/21 02:43:41;;;;;;;4.57;4.00;;;15.70;99.90;;;;;;5059872;28;20247;-70
2023/07/21 02:46:30;;;;;;;4.45;3.83;;;15.80;99.90;;;;;;5054591;28;20824;-71
2023/07/21 02:49:20;;;;;;;4.55;4.00;;;15.80;99.90;;;;;;5052446;28;20221;-72
2023/07/21 02:52:11;;;;;;;6.30;4.60;;;15.70;99.90;;;;;;5050032;28;20216;-72
2023/07/21 02:55:09;;;;;;;5.80;4.35;;;15.60;99.90;;;;;;5055135;28;20303;-71
2023/07/21 02:57:58;;;;;;;5.60;4.80;;;15.60;99.90;;;;;;5053760;28;20763;-71
2023/07/21 03:00:55;;;;;;;4.70;4.18;;;15.60;99.90;;;;;;5043489;28;20246;-72
2023/07/21 03:03:54;;;;;;;7.10;4.30;;;15.70;99.90;;;;;;5049077;28;20220;-72
2023/07/21 03:06:46;;;;;;;5.65;4.10;;;15.80;99.90;;;;;;5054418;28;20285;-72
2023/07/21 03:09:36;;;;;;;8.63;4.25;;;15.80;99.90;;;;;;5056264;28;20719;-72
2023/07/21 03:12:34;;;;;;;5.50;4.32;;;15.80;99.90;;;;;;5046461;28;20223;-72
2023/07/21 03:15:25;;;;;;;4.97;4.15;;;15.90;99.90;;;;;;5055014;28;20721;-72
2023/07/21 03:18:32;;;;;;;7.07;4.80;;;15.90;99.90;;;;;;5051680;28;20673;-72
2023/07/21 03:21:34;;;;;;;5.30;4.53;;;15.90;99.90;;;;;;5057456;28;20239;-72
2023/07/21 03:24:24;;;;;;;4.47;4.03;;;15.90;99.90;;;;;;5036239;28;20233;-72
2023/07/21 03:27:14;;;;;;;5.07;4.65;;;16.00;99.90;;;;;;5041504;28;20251;-71
2023/07/21 03:30:05;;;;;;;5.50;4.68;;;16.00;99.90;;;;;;5042437;28;20224;-71
2023/07/21 03:32:57;;;;;;;6.30;4.45;;;16.10;99.90;;;;;;5039613;28;20225;-71
2023/07/21 03:35:46;;;;;;;5.22;4.40;;;16.10;99.90;;;;;;5062062;28;20220;-70
2023/07/21 03:38:36;;;;;;;6.50;4.57;;;16.10;99.90;;;;;;5052746;28;20231;-71
2023/07/21 03:41:25;;;;;;;4.80;4.30;;;16.20;99.90;;;;;;5059513;28;20739;-71
2023/07/21 03:44:16;;;;;;;4.88;4.40;;;16.20;99.90;;;;;;5055708;28;20238;-70
2023/07/21 03:47:06;;;;;;;6.93;4.65;;;16.30;99.90;;;;;;5045134;28;20269;-71
2023/07/21 03:50:01;;;;;;;6.20;4.57;;;16.40;99.90;;;;;;5045315;28;20231;-71
2023/07/21 03:52:51;;;;;;;5.15;4.45;;;16.40;99.90;;;;;;5054740;28;20217;-72
2023/07/21 03:55:43;;;;;;;6.47;5.20;;;16.50;99.90;;;;;;5039353;28;20224;-71
2023/07/21 03:58:32;;;;;;;5.15;4.70;;;16.50;99.90;;;;;;5061763;28;20273;-70
2023/07/21 04:01:23;;;;;;;5.30;4.53;;;16.60;99.90;;;;;;5035419;28;20869;-71
2023/07/21 04:04:12;;;;;;;5.50;4.88;;;16.70;99.90;;;;;;5043335;28;20263;-71
2023/07/21 04:07:02;;;;;;;7.05;4.20;;;16.60;99.90;;;;;;5041050;28;20354;-72
2023/07/21 04:09:51;;;;;;;5.40;4.10;;;16.60;99.90;;;;;;5061874;28;20221;-71
2023/07/21 04:12:40;;;;;;;4.53;4.13;;;16.60;99.90;;;;;;5058050;28;20216;-72
2023/07/21 04:15:29;;;;;;;4.32;3.92;;;16.70;99.90;;;;;;5044073;28;20520;-72
2023/07/21 04:18:19;;;;;;;6.50;4.57;;;16.80;99.90;;;;;;5039698;28;20324;-72
2023/07/21 04:21:11;;;;;;;6.43;4.45;;;17.00;99.90;;;;;;5039401;28;20737;-72
2023/07/21 04:24:00;;;;;;;5.55;4.18;;;17.00;99.90;;;;;;5052210;28;20238;-72
2023/07/21 04:26:50;;;;;;;7.28;4.72;;;17.10;99.90;;;;;;5038749;28;20683;-73
2023/07/21 04:29:39;;;;;;;5.57;4.80;;;17.20;99.90;;;;;;5034939;28;20229;-73
2023/07/21 04:32:28;;;;;;;4.85;4.30;;;17.30;99.90;;;;;;5050861;28;20225;-72
2023/07/21 04:35:21;;;;;;;5.35;4.25;;;17.30;99.90;;;;;;5039691;28;20228;-73
2023/07/21 04:38:10;;;;;;;5.32;4.28;;;17.40;99.90;;;;;;5036469;28;20319;-73
2023/07/21 04:41:04;;;;;;;5.65;4.10;;;17.40;99.90;;;;;;5047892;28;20229;-73
2023/07/21 04:43:53;;;;;;;6.10;4.30;;;17.50;99.90;;;;;;5040906;28;20228;-74
2023/07/21 04:46:43;;;;;;;7.38;4.53;;;17.50;99.90;;;;;;5032307;28;20645;-74
2023/07/21 04:49:37;;;;;;;5.50;3.90;;;17.60;99.90;;;;;;5049221;28;20233;-74
2023/07/21 04:52:27;;;;;;;4.50;3.90;;;17.60;99.90;;;;;;5044204;28;20228;-73
2023/07/21 04:55:16;;;;;;;4.68;4.20;;;17.70;99.90;;;;;;5076753;28;20323;-73
2023/07/21 04:58:05;;;;;;;5.32;4.10;;;17.90;99.90;;;;;;5074869;28;20716;-73
2023/07/21 05:00:54;;;;;;;5.25;3.72;;;17.90;99.90;;;;;;5063736;28;21210;-72
2023/07/21 05:03:43;;;;;;;6.18;4.05;;;17.90;99.90;;;;;;5070355;28;20221;-71
2023/07/21 05:06:34;;;;;;;6.60;4.00;;;18.00;99.90;;;;;;5078874;28;20234;-70
2023/07/21 05:09:24;;;;;;;6.20;4.07;;;18.10;99.90;;;;;;5077306;28;20682;-70
2023/07/21 05:12:15;;;;;;;6.05;3.55;;;18.20;99.90;;;;;;5073408;28;20246;-72
2023/07/21 05:15:24;;;;;;;3.72;3.42;;;18.30;99.90;;;;;;5070869;28;20250;-71
2023/07/21 05:18:24;;;;;;;5.35;3.60;;;18.40;99.90;;;;;;5052406;28;20633;-71
2023/07/21 05:21:41;;;;;;;3.60;3.30;;;18.50;99.90;;;;;;5058172;28;20227;-71
2023/07/21 05:25:12;;;;;;;4.15;3.63;;;18.70;99.90;;;;;;5007343;28;20240;-73
2023/07/21 05:28:01;;;;;;;5.15;3.50;;;18.80;99.90;;;;;;5026632;28;20229;-73
2023/07/21 05:30:52;;;;;;;4.07;3.47;;;18.90;99.90;;;;;;5075149;28;20358;-72
2023/07/21 05:33:44;;;;;;;5.25;3.70;;;19.00;99.90;;;;;;5074825;28;20285;-70
2023/07/21 05:36:33;;;;;;;4.82;3.47;;;19.20;99.90;;;;;;5071724;28;20223;-69
2023/07/21 05:39:23;;;;;;;5.78;3.40;;;19.60;99.90;;;;;;5074548;28;20219;-71
2023/07/21 05:42:13;;;;;;;3.55;3.08;;;20.50;99.90;;;;;;5072340;28;20238;-73
2023/07/21 05:45:02;;;;;;;3.67;3.38;;;21.80;99.90;;;;;;5067117;28;20279;-76
2023/07/21 05:47:55;;;;;;;6.70;3.08;;;21.60;99.90;;;;;;5053286;28;20212;-71
2023/07/21 05:50:46;;;;;;;4.30;3.63;;;20.90;99.90;;;;;;5072997;28;20334;-72
2023/07/21 05:53:37;;;;;;;4.25;3.28;;;20.60;99.90;;;;;;5051235;28;20694;-69
2023/07/21 05:56:32;;;;;;;3.53;3.22;;;20.40;99.90;;;;;;5058218;28;20208;-72
2023/07/21 05:59:27;;;;;;;4.40;3.28;;;20.40;99.90;;;;;;5058260;28;20222;-74
2023/07/21 06:02:16;;;;;;;4.32;3.47;;;20.40;99.90;;;;;;5059478;28;20220;-70
2023/07/21 06:05:12;;;;;;;6.55;3.60;;;20.20;99.90;;;;;;5064156;28;20223;-74
2023/07/21 06:08:21;;;;;;;8.50;3.63;;;20.00;99.90;;;;;;5079019;28;20230;-70
2023/07/21 06:11:21;;;;;;;3.80;3.50;;;19.90;99.90;;;;;;5057409;28;20769;-71
2023/07/21 06:14:17;;;;;;;6.13;3.83;;;20.00;99.90;;;;;;5071543;28;20278;-70
2023/07/21 06:17:40;;;;;;;4.55;2.92;;;20.00;99.90;;;;;;5045092;28;20234;-71
2023/07/21 06:20:29;;;;;;;4.00;3.28;;;19.90;99.90;;;;;;5070894;28;20307;-70
2023/07/21 06:23:18;;;;;;;4.70;3.40;;;19.90;99.90;;;;;;5059530;28;20254;-70
2023/07/21 06:26:10;;;;;;;4.43;3.58;;;19.80;99.90;;;;;;5071559;28;20235;-71
2023/07/21 06:28:59;;;;;;;5.00;2.78;;;19.80;99.90;;;;;;5059722;28;20326;-71
2023/07/21 06:31:49;;;;;;;5.28;2.72;;;19.70;99.90;;;;;;5071044;28;20637;-71
2023/07/21 06:35:00;;;;;;;3.45;3.15;;;19.70;99.90;;;;;;5067452;28;20223;-71
2023/07/21 06:38:21;;;;;;;7.28;3.00;;;19.80;99.90;;;;;;5039553;28;20231;-69
2023/07/21 06:41:28;;;;;;;4.07;2.80;;;19.80;99.90;;;;;;5074801;28;20610;-71
2023/07/21 06:44:38;;;;;;;4.68;3.13;;;19.70;99.90;;;;;;5075689;28;20210;-70
2023/07/21 06:47:48;;;;;;;4.28;2.47;;;19.80;99.90;;;;;;5072982;28;20730;-70
2023/07/21 06:50:42;;;;;;;5.63;3.20;;;19.90;99.90;;;;;;5073130;28;20339;-70
2023/07/21 06:53:30;;;;;;;4.53;2.92;;;20.10;99.90;;;;;;5072303;28;20669;-70
2023/07/21 06:56:19;;;;;;;6.40;2.72;;;20.20;99.90;;;;;;5065573;28;20297;-70
2023/07/21 06:59:11;;;;;;;5.13;2.50;;;20.40;99.90;;;;;;5058710;28;20215;-70
2023/07/21 07:02:00;;;;;;;4.70;2.22;;;20.40;99.90;;;;;;5065839;28;20314;-70
2023/07/21 07:04:51;;;;;;;5.05;2.50;;;20.50;99.90;;;;;;5069873;28;20219;-70
2023/07/21 07:07:42;;;;;;;5.82;2.42;;;20.60;99.90;;;;;;5077634;28;20226;-71
2023/07/21 07:10:31;;;;;;;3.78;2.50;;;20.50;99.90;;;;;;5076799;28;20232;-71
2023/07/21 07:13:20;;;;;;;4.20;2.25;;;20.60;99.90;;;;;;5075839;28;20369;-72
2023/07/21 07:16:11;;;;;;;7.35;2.20;;;20.40;99.90;;;;;;5078098;28;20235;-72
2023/07/21 07:19:00;;;;;;;5.40;2.33;;;20.30;99.90;;;;;;5070420;28;20228;-71
2023/07/21 07:21:49;;;;;;;4.65;2.30;;;20.70;99.90;;;;;;5075324;28;20334;-72
2023/07/21 07:24:39;;;;;;;3.25;1.73;;;21.30;99.90;;;;;;5076674;28;20882;-72
2023/07/21 07:27:28;;;;;;;4.75;1.90;;;21.60;99.90;;;;;;5072669;28;20227;-71
2023/07/21 07:30:20;;;;;;;5.88;2.03;;;22.00;99.90;;;;;;5062918;28;20216;-73
2023/07/21 07:33:09;;;;;;;3.10;2.15;;;22.40;99.90;;;;;;5076745;28;20228;-72
2023/07/21 07:35:59;;;;;;;2.75;1.63;;;22.80;99.90;;;;;;5075600;28;20682;-72
2023/07/21 07:38:49;;;;;;;2.97;1.40;;;23.20;99.90;;;;;;5071727;28;20220;-72
2023/07/21 07:41:39;;;;;;;3.72;1.83;;;23.10;99.90;;;;;;5074609;28;20314;-72
2023/07/21 07:44:28;;;;;;;3.55;2.05;;;23.40;99.90;;;;;;5059608;28;20590;-72
2023/07/21 07:47:16;;;;;;;2.25;1.70;;;23.70;99.90;;;;;;5066441;28;20926;-72
2023/07/21 07:50:08;;;;;;;1.65;1.33;;;24.40;99.90;;;;;;5078856;28;20680;-72
2023/07/21 07:52:59;;;;;;;2.95;1.42;;;24.90;99.90;;;;;;5079049;28;20804;-72
2023/07/21 07:55:48;;;;;;;3.45;1.67;;;25.40;99.90;;;;;;5063236;28;20228;-72
2023/07/21 07:58:39;;;;;;;4.65;1.50;;;25.60;99.90;;;;;;5069014;28;20222;-72
2023/07/21 08:01:27;;;;;;;2.92;1.38;;;25.70;99.90;;;;;;5070742;28;20243;-73
2023/07/21 08:04:17;;;;;;;1.30;1.20;;;25.70;99.90;;;;;;5059949;28;20228;-72
2023/07/21 08:07:07;;;;;;;4.07;1.45;;;25.60;99.90;;;;;;5071177;28;20236;-72
2023/07/21 08:09:57;;;;;;;3.40;1.40;;;25.80;99.90;;;;;;5072101;28;20318;-72
2023/07/21 08:12:46;;;;;;;1.67;1.30;;;26.40;99.90;;;;;;5076135;28;20603;-72
2023/07/21 08:15:36;;;;;;;3.13;1.20;;;26.90;99.90;;;;;;5066081;28;20258;-72
2023/07/21 08:18:28;;;;;;;2.65;1.20;;;27.10;99.90;;;;;;5077528;28;20239;-72
2023/07/21 08:21:18;;;;;;;3.00;1.38;;;27.40;99.40;;;;;;5069526;28;20228;-70
2023/07/21 08:24:07;;;;;;;1.90;1.15;;;27.60;98.70;;;;;;5064891;28;20297;-72
2023/07/21 08:26:57;;;;;;;1.58;1.33;;;27.50;95.10;;;;;;5073103;28;20239;-71
2023/07/21 08:29:46;;;;;;;1.13;1.02;;;27.80;96.60;;;;;;5069951;28;20230;-72
2023/07/21 08:32:37;;;;;;;1.98;1.30;;;28.00;91.90;;;;;;5066651;28;20243;-72
2023/07/21 08:35:27;;;;;;;2.10;1.30;;;27.40;91.00;;;;;;5073284;28;20375;-72
2023/07/21 08:38:16;;;;;;;2.45;1.20;;;27.70;94.50;;;;;;5073301;28;20365;-71
2023/07/21 08:41:08;;;;;;;1.42;1.15;;;27.00;91.10;;;;;;5062874;28;20219;-71
2023/07/21 08:43:57;;;;;;;3.55;1.10;;;26.30;94.00;;;;;;5076451;28;20242;-72
2023/07/21 08:46:47;;;;;;;1.83;1.20;;;25.90;95.30;;;;;;5073410;28;21086;-71
2023/07/21 08:49:40;;;;;;;3.97;0.98;;;25.30;96.20;;;;;;5076730;28;20607;-73
2023/07/21 08:52:29;;;;;;;1.33;1.17;;;24.70;92.20;;;;;;5076046;28;20219;-71
2023/07/21 08:55:19;;;;;;;3.00;1.60;;;24.10;94.20;;;;;;5067513;28;20874;-71
2023/07/21 08:58:10;;;;;;;2.25;1.40;;;23.70;98.60;;;;;;5072267;28;20228;-71
2023/07/21 09:00:59;;;;;;;2.08;1.50;;;23.40;98.10;;;;;;5071750;28;20230;-71
2023/07/21 09:03:48;;;;;;;2.72;1.60;;;23.20;98.10;;;;;;5059338;28;20220;-71
2023/07/21 09:06:41;;;;;;;4.53;1.38;;;23.00;99.90;;;;;;5071822;28;20227;-71
2023/07/21 09:09:32;;;;;;;3.10;1.67;;;22.70;99.90;;;;;;5056180;28;20711;-71
2023/07/21 09:12:21;;;;;;;4.55;1.80;;;22.60;99.90;;;;;;5074195;28;20257;-71
2023/07/21 09:15:11;;;;;;;3.08;1.80;;;22.60;99.90;;;;;;5063627;28;20254;-71
2023/07/21 09:18:01;;;;;;;2.08;1.30;;;22.50;99.90;;;;;;5071524;28;20223;-71
2023/07/21 09:20:49;;;;;;;2.03;1.55;;;22.40;99.90;;;;;;5057690;28;20222;-72
2023/07/21 09:23:40;;;;;;;3.15;1.70;;;22.40;99.90;;;;;;5058749;28;20719;-72
2023/07/21 09:26:29;;;;;;;2.10;1.58;;;22.30;99.90;;;;;;5073673;28;20790;-71
2023/07/21 09:29:18;;;;;;;3.80;1.70;;;22.50;99.90;;;;;;5076106;28;20302;-71
2023/07/21 09:32:14;;;;;;;3.58;1.77;;;22.70;99.90;;;;;;5057875;28;20219;-71
2023/07/21 09:35:04;;;;;;;3.38;1.55;;;24.50;99.90;;;;;;5072744;28;20220;-74
2023/07/21 09:37:54;;;;;;;2.03;1.75;;;25.10;98.80;;;;;;5060598;28;20314;-74
2023/07/21 09:40:45;;;;;;;1.85;1.45;;;25.40;98.00;;;;;;5073663;28;20954;-72
2023/07/21 09:43:34;;;;;;;2.17;1.30;;;25.60;98.60;;;;;;5075252;28;20640;-72
2023/07/21 09:46:23;;;;;;;2.42;1.15;;;25.70;95.60;;;;;;5070133;28;20227;-72
2023/07/21 09:49:13;;;;;;;4.45;1.35;;;25.00;97.80;;;;;;5068874;28;20383;-72
2023/07/21 09:52:03;;;;;;;3.55;1.30;;;24.90;97.60;;;;;;5070780;28;21080;-72
2023/07/21 09:55:00;;;;;;;1.73;1.42;;;24.70;96.50;;;;;;5068367;28;20231;-72
2023/07/21 09:57:54;;;;;;;3.40;1.30;;;24.50;98.80;;;;;;5069687;28;20715;-71
2023/07/21 10:00:44;;;;;;;3.63;1.27;;;24.40;98.30;;;;;;5072146;28;20223;-72
2023/07/21 10:03:35;;;;;;;3.97;1.42;;;24.30;97.50;;;;;;5066743;28;20916;-72
2023/07/21 10:06:25;;;;;;;2.03;1.50;;;24.20;99.70;;;;;;5063919;28;20235;-72
2023/07/21 10:09:16;;;;;;;2.50;1.52;;;24.10;95.50;;;;;;5062578;28;20227;-71
2023/07/21 10:12:10;;;;;;;1.63;1.42;;;24.10;99.90;;;;;;5061388;28;20225;-72
2023/07/21 10:15:01;;;;;;;2.70;1.40;;;24.40;96.80;;;;;;5066681;28;20311;-72
2023/07/21 10:17:59;;;;;;;4.47;1.40;;;26.60;97.20;;;;;;5068127;28;20207;-72
2023/07/21 10:20:50;;;;;;;3.63;1.42;;;29.80;90.40;;;;;;5073711;28;20295;-72
2023/07/21 10:23:39;;;;;;;2.92;1.33;;;32.00;87.40;;;;;;5068704;28;20772;-72
2023/07/21 10:26:30;;;;;;;2.58;1.38;;;31.40;85.10;;;;;;5057275;28;20275;-73
2023/07/21 10:29:19;;;;;;;4.20;1.85;;;32.70;82.20;;;;;;5076372;28;20803;-73
2023/07/21 10:32:11;;;;;;;2.35;1.88;;;31.70;83.80;;;;;;5053012;28;20248;-71
2023/07/21 10:35:00;;;;;;;2.65;1.40;;;34.30;74.00;;;;;;5069303;28;20824;-72
2023/07/21 10:38:19;;;;;;;3.92;1.33;;;34.90;67.20;;;;;;5066915;28;20231;-72
2023/07/21 10:41:11;;;;;;;2.65;1.30;;;35.90;62.70;;;;;;5065040;28;20730;-72
2023/07/21 10:44:00;;;;;;;3.00;1.40;;;36.20;59.70;;;;;;5066355;28;20232;-72
2023/07/21 10:46:51;;;;;;;1.20;1.10;;;36.90;61.30;;;;;;5067018;28;20310;-72
2023/07/21 10:49:42;;;;;;;1.65;1.30;;;37.30;57.20;;;;;;5055995;28;20721;-73
2023/07/21 10:52:31;;;;;;;4.38;1.65;;;37.40;56.10;;;;;;5082817;28;20364;-74
2023/07/21 10:55:20;;;;;;;2.28;1.60;;;35.90;57.50;;;;;;5076105;28;20653;-74
2023/07/21 10:58:10;;;;;;;2.33;1.33;;;36.10;57.10;;;;;;5089081;28;20247;-75
2023/07/21 11:00:59;;;;;;;3.03;1.40;;;36.80;55.90;;;;;;5071148;28;20219;-73
2023/07/21 11:03:48;;;;;;;1.50;1.20;;;37.60;56.70;;;;;;5059641;28;20218;-73
2023/07/21 11:06:42;;;;;;;3.10;1.33;;;38.10;55.50;;;;;;5073043;28;20224;-75
2023/07/21 11:09:33;;;;;;;1.85;1.42;;;36.00;58.00;;;;;;5076638;28;20595;-75
2023/07/21 11:12:24;;;;;;;2.90;1.50;;;35.20;63.20;;;;;;5080594;28;20237;-74
2023/07/21 11:15:13;;;;;;;2.10;1.33;;;33.00;67.70;;;;;;5065795;28;20223;-73
2023/07/21 11:18:02;;;;;;;4.25;1.45;;;31.50;63.40;;;;;;5060465;28;20791;-73
2023/07/21 11:20:52;;;;;;;3.15;1.63;;;29.70;72.00;;;;;;5072729;28;20310;-73
2023/07/21 11:23:42;;;;;;;2.78;1.38;;;28.50;68.00;;;;;;5086049;28;20874;-73
2023/07/21 11:26:35;;;;;;;4.57;1.63;;;27.40;74.40;;;;;;5076331;28;20215;-74
2023/07/21 11:29:25;;;;;;;4.55;1.77;;;26.90;73.00;;;;;;5057562;28;20220;-73
2023/07/21 11:32:18;;;;;;;2.50;1.50;;;26.20;72.70;;;;;;5076921;28;20232;-73
2023/07/21 11:35:09;;;;;;;4.22;1.70;;;25.90;73.80;;;;;;5075031;28;20570;-75
2023/07/21 11:37:59;;;;;;;7.95;2.10;;;25.60;73.90;;;;;;5075361;28;20232;-73
2023/07/21 11:40:52;;;;;;;2.30;1.70;;;25.40;79.60;;;;;;5066566;28;20313;-73
2023/07/21 11:43:50;;;;;;;8.43;2.05;;;25.30;81.70;;;;;;5059773;28;20226;-73
2023/07/21 11:46:39;;;;;;;3.58;1.60;;;25.80;82.30;;;;;;5080428;28;20720;-74
2023/07/21 11:49:29;;;;;;;2.63;1.27;;;29.80;80.30;;;;;;5078555;28;20340;-73
2023/07/21 11:52:24;;;;;;;4.18;1.70;;;33.60;63.80;;;;;;5059591;28;20329;-72
2023/07/21 11:55:14;;;;;;;3.55;1.50;;;34.80;61.50;;;;;;5074455;28;20219;-73
2023/07/21 11:58:04;;;;;;;4.60;1.40;;;34.80;62.40;;;;;;5065969;28;20223;-73
2023/07/21 12:00:57;;;;;;;2.47;1.60;;;32.10;60.80;;;;;;5065065;28;20215;-73
2023/07/21 12:03:46;;;;;;;2.05;1.33;;;30.20;65.70;;;;;;5070372;28;20238;-73
2023/07/21 12:06:35;;;;;;;1.67;1.50;;;29.10;66.80;;;;;;5064340;28;20332;-74
2023/07/21 12:09:25;;;;;;;4.65;1.58;;;33.90;58.20;;;;;;5072757;28;20234;-74
2023/07/21 12:12:14;;;;;;;2.58;1.50;;;32.00;58.30;;;;;;5083774;28;20654;-74
2023/07/21 12:15:06;;;;;;;4.03;1.33;;;29.80;63.80;;;;;;5064323;28;20219;-74
2023/07/21 12:17:55;;;;;;;2.80;1.60;;;28.80;64.70;;;;;;5062183;28;20228;-74
2023/07/21 12:20:45;;;;;;;2.28;1.45;;;27.80;67.40;;;;;;5068239;28;20211;-73
2023/07/21 12:23:34;;;;;;;2.83;1.23;;;33.90;60.40;;;;;;5061344;28;20231;-73
2023/07/21 12:26:24;;;;;;;1.73;1.30;;;39.20;54.50;;;;;;5072618;28;20709;-70
2023/07/21 12:29:13;;;;;;;2.60;1.40;;;41.80;51.00;;;;;;5076878;28;20255;-72
2023/07/21 12:32:22;;;;;;;1.92;1.27;;;44.50;48.00;;;;;;5082653;28;20290;-74
2023/07/21 12:35:11;;;;;;;1.30;0.95;;;46.60;43.80;;;;;;5076658;28;20227;-74
2023/07/21 12:38:01;;;;;;;2.13;1.20;;;47.60;41.70;;;;;;5065431;28;20242;-74
2023/07/21 12:40:50;;;;;;;1.92;1.20;;;47.10;42.00;;;;;;5061224;28;20216;-74
2023/07/21 12:43:39;;;;;;;1.48;1.20;;;48.00;40.50;;;;;;5071692;28;20251;-74
2023/07/21 12:46:28;;;;;;;2.72;1.77;;;48.60;38.50;;;;;;5066107;28;20224;-74
2023/07/21 12:49:18;;;;;;;3.75;2.22;;;47.30;38.00;;;;;;5065071;28;20710;-74
2023/07/21 12:52:08;;;;;;;1.48;1.20;;;44.30;37.80;;;;;;5050836;28;20302;-75
2023/07/21 12:54:57;;;;;;;1.20;1.10;;;38.50;39.40;;;;;;5072483;28;20304;-73
2023/07/21 12:57:46;;;;;;;1.80;1.00;;;34.50;45.30;;;;;;5076653;28;20211;-74
2023/07/21 13:00:35;;;;;;;3.97;1.20;;;32.50;49.10;;;;;;5067768;28;20566;-73
2023/07/21 13:03:23;;;;;;;3.95;1.40;;;31.10;52.40;;;;;;5063639;28;20548;-73
2023/07/21 13:06:15;;;;;;;1.05;1.00;;;30.20;52.60;;;;;;5076316;28;20282;-74
2023/07/21 13:09:05;;;;;;;2.35;1.38;;;29.60;54.40;;;;;;5071519;28;20702;-73
2023/07/21 13:11:56;;;;;;;1.63;1.17;;;28.70;52.70;;;;;;5074973;28;20273;-73
2023/07/21 13:14:45;;;;;;;1.75;1.15;;;28.30;54.50;;;;;;5075423;28;20229;-73
2023/07/21 13:17:34;;;;;;;3.53;1.52;;;27.80;55.50;;;;;;5080663;28;20698;-75
2023/07/21 13:20:23;;;;;;;1.33;1.23;;;27.60;56.30;;;;;;5071597;28;20233;-74
2023/07/21 13:23:14;;;;;;;3.67;1.35;;;27.40;58.80;;;;;;5073249;28;20238;-74
2023/07/21 13:26:09;;;;;;;7.97;6.97;;;27.20;57.40;;;;;;5079732;28;20237;-73
2023/07/21 13:28:59;;;;;;;8.15;1.83;;;27.10;59.40;;;;;;5060899;28;20788;-73
2023/07/21 13:31:47;;;;;;;1.58;1.40;;;27.10;57.40;;;;;;5069117;28;20216;-73
2023/07/21 13:34:36;;;;;;;3.08;1.70;;;27.00;58.40;;;;;;5086360;28;20249;-72
2023/07/21 13:37:26;;;;;;;1.85;1.58;;;26.90;60.40;;;;;;5062504;28;20222;-74
2023/07/21 13:40:16;;;;;;;1.52;1.30;;;26.90;57.60;;;;;;5068271;28;20928;-73
2023/07/21 13:43:05;;;;;;;1.77;1.17;;;26.60;57.70;;;;;;5072011;28;20229;-72
2023/07/21 13:45:56;;;;;;;1.90;1.35;;;26.50;60.50;;;;;;5070790;28;20227;-73
2023/07/21 13:48:45;;;;;;;8.13;7.32;;;26.40;61.00;;;;;;5073807;28;20230;-73
2023/07/21 13:51:34;;;;;;;2.80;2.20;;;26.40;61.60;;;;;;5071936;28;20725;-73
2023/07/21 13:54:23;;;;;;;7.65;3.35;;;26.40;62.20;;;;;;5067868;28;20356;-73
2023/07/21 13:57:13;;;;;;;2.35;1.77;;;26.30;65.80;;;;;;5078866;28;20288;-73
2023/07/21 14:00:02;;;;;;;3.45;1.45;;;26.20;60.50;;;;;;5071121;28;20226;-73
2023/07/21 14:02:59;;;;;;;2.50;1.50;;;26.10;62.30;;;;;;5068593;28;20397;-74
2023/07/21 14:05:49;;;;;;;5.38;1.63;;;26.00;59.90;;;;;;5087624;28;20252;-73
2023/07/21 14:08:38;;;;;;;1.52;1.20;;;25.90;61.00;;;;;;5062723;28;20218;-73
2023/07/21 14:11:26;;;;;;;1.70;1.50;;;25.90;58.60;;;;;;5076026;28;20215;-73
2023/07/21 14:14:17;;;;;;;3.28;1.98;;;25.70;61.10;;;;;;5070922;28;20301;-73
2023/07/21 14:17:06;;;;;;;3.53;1.52;;;25.80;61.80;;;;;;5066772;28;20296;-73
2023/07/21 14:19:55;;;;;;;2.72;1.60;;;25.80;62.80;;;;;;5078917;28;20224;-73
2023/07/21 14:22:44;;;;;;;3.95;1.50;;;26.00;62.70;;;;;;5079008;28;20445;-73
2023/07/21 14:25:37;;;;;;;6.25;1.30;;;25.90;60.10;;;;;;5079694;28;20214;-75
2023/07/21 14:28:26;;;;;;;3.92;1.42;;;25.90;59.30;;;;;;5063482;28;20235;-71
2023/07/21 14:31:18;;;;;;;2.15;1.90;;;25.80;61.00;;;;;;5072241;28;20236;-73
2023/07/21 14:34:09;;;;;;;2.03;1.50;;;25.70;60.40;;;;;;5070547;28;20227;-72
2023/07/21 14:36:59;;;;;;;2.15;1.40;;;25.70;59.10;;;;;;5083649;28;20250;-72
2023/07/21 14:39:48;;;;;;;2.40;1.80;;;25.90;60.30;;;;;;5073408;28;20224;-73
2023/07/21 14:42:37;;;;;;;5.68;1.90;;;26.00;60.80;;;;;;5065068;28;20235;-74
2023/07/21 14:45:27;;;;;;;5.90;1.60;;;26.00;63.60;;;;;;5066614;28;20223;-71
2023/07/21 14:48:17;;;;;;;3.13;1.20;;;26.00;61.10;;;;;;5076519;28;20226;-71
2023/07/21 14:51:11;;;;;;;3.55;1.40;;;25.70;61.60;;;;;;5076469;28;20211;-75
2023/07/21 14:54:00;;;;;;;2.42;1.77;;;25.50;62.60;;;;;;5080720;28;20224;-75